sensor_id;sensor_type;location;lat;lon;timestamp;P1;durP1;ratioP1;P2;durP2;ratioP2
77146;SDS011;66121;52.584;9.694;2024-02-28T00:00:33;17.70;;;7.25;;
77146;SDS011;66121;52.584;9.694;2024-02-28T00:02:58;16.40;;;8.05;;
77146;SDS011;66121;52.584;9.694;2024-02-28T00:05:24;15.70;;;7.87;;
77146;SDS011;66121;52.584;9.694;2024-02-28T00:07:49;17.67;;;8.20;;
77146;SDS011;66121;52.584;9.694;2024-02-28T00:10:15;16.10;;;8.20;;
77146;SDS011;66121;52.584;9.694;2024-02-28T00:12:40;15.60;;;7.82;;
77146;SDS011;66121;52.584;9.694;2024-02-28T00:15:06;14.85;;;7.53;;
77146;SDS011;66121;52.584;9.694;2024-02-28T00:17:37;14.15;;;7.22;;
77146;SDS011;66121;52.584;9.694;2024-02-28T00:20:04;11.25;;;6.68;;
77146;SDS011;66121;52.584;9.694;2024-02-28T00:22:30;15.10;;;7.72;;
77146;SDS011;66121;52.584;9.694;2024-02-28T00:24:55;13.53;;;7.37;;
77146;SDS011;66121;52.584;9.694;2024-02-28T00:27:20;15.17;;;7.93;;
77146;SDS011;66121;52.584;9.694;2024-02-28T00:29:46;15.32;;;7.35;;
77146;SDS011;66121;52.584;9.694;2024-02-28T00:32:11;17.08;;;8.10;;
77146;SDS011;66121;52.584;9.694;2024-02-28T00:34:37;11.83;;;6.67;;
77146;SDS011;66121;52.584;9.694;2024-02-28T00:37:02;14.43;;;8.13;;
77146;SDS011;66121;52.584;9.694;2024-02-28T00:39:27;16.38;;;7.88;;
77146;SDS011;66121;52.584;9.694;2024-02-28T00:41:53;17.27;;;7.70;;
77146;SDS011;66121;52.584;9.694;2024-02-28T00:44:18;13.57;;;7.87;;
77146;SDS011;66121;52.584;9.694;2024-02-28T00:46:43;17.20;;;8.32;;
77146;SDS011;66121;52.584;9.694;2024-02-28T00:49:09;16.30;;;8.23;;
77146;SDS011;66121;52.584;9.694;2024-02-28T00:51:34;14.60;;;7.75;;
77146;SDS011;66121;52.584;9.694;2024-02-28T00:54:01;18.02;;;7.97;;
77146;SDS011;66121;52.584;9.694;2024-02-28T00:56:26;17.13;;;8.33;;
77146;SDS011;66121;52.584;9.694;2024-02-28T00:58:52;17.67;;;8.60;;
77146;SDS011;66121;52.584;9.694;2024-02-28T01:01:18;15.45;;;8.30;;
77146;SDS011;66121;52.584;9.694;2024-02-28T01:03:43;15.73;;;7.95;;
77146;SDS011;66121;52.584;9.694;2024-02-28T01:06:09;14.63;;;8.20;;
77146;SDS011;66121;52.584;9.694;2024-02-28T01:08:34;16.33;;;7.60;;
77146;SDS011;66121;52.584;9.694;2024-02-28T01:10:59;18.93;;;9.40;;
77146;SDS011;66121;52.584;9.694;2024-02-28T01:13:25;17.00;;;8.45;;
77146;SDS011;66121;52.584;9.694;2024-02-28T01:15:50;18.55;;;10.23;;
77146;SDS011;66121;52.584;9.694;2024-02-28T01:18:15;17.37;;;8.73;;
77146;SDS011;66121;52.584;9.694;2024-02-28T01:20:41;14.13;;;8.40;;
77146;SDS011;66121;52.584;9.694;2024-02-28T01:23:06;17.38;;;9.05;;
77146;SDS011;66121;52.584;9.694;2024-02-28T01:25:31;15.93;;;9.45;;
77146;SDS011;66121;52.584;9.694;2024-02-28T01:27:57;17.58;;;9.23;;
77146;SDS011;66121;52.584;9.694;2024-02-28T01:30:25;18.90;;;9.40;;
77146;SDS011;66121;52.584;9.694;2024-02-28T01:32:51;18.27;;;9.30;;
77146;SDS011;66121;52.584;9.694;2024-02-28T01:35:16;17.13;;;9.90;;
77146;SDS011;66121;52.584;9.694;2024-02-28T01:37:41;19.65;;;10.45;;
77146;SDS011;66121;52.584;9.694;2024-02-28T01:40:07;19.00;;;10.02;;
77146;SDS011;66121;52.584;9.694;2024-02-28T01:42:33;18.52;;;9.75;;
77146;SDS011;66121;52.584;9.694;2024-02-28T01:44:58;18.27;;;9.27;;
77146;SDS011;66121;52.584;9.694;2024-02-28T01:47:23;17.10;;;9.52;;
77146;SDS011;66121;52.584;9.694;2024-02-28T01:49:49;20.05;;;9.27;;
77146;SDS011;66121;52.584;9.694;2024-02-28T01:52:16;16.13;;;8.98;;
77146;SDS011;66121;52.584;9.694;2024-02-28T01:54:42;19.75;;;9.73;;
77146;SDS011;66121;52.584;9.694;2024-02-28T01:57:08;23.50;;;10.98;;
77146;SDS011;66121;52.584;9.694;2024-02-28T01:59:33;23.83;;;11.65;;
77146;SDS011;66121;52.584;9.694;2024-02-28T02:01:59;22.35;;;9.95;;
77146;SDS011;66121;52.584;9.694;2024-02-28T02:04:25;21.40;;;11.60;;
77146;SDS011;66121;52.584;9.694;2024-02-28T02:06:50;24.25;;;11.02;;
77146;SDS011;66121;52.584;9.694;2024-02-28T02:09:19;24.58;;;12.88;;
77146;SDS011;66121;52.584;9.694;2024-02-28T02:11:44;22.50;;;11.13;;
77146;SDS011;66121;52.584;9.694;2024-02-28T02:14:10;25.70;;;11.97;;
77146;SDS011;66121;52.584;9.694;2024-02-28T02:16:35;20.95;;;10.90;;
77146;SDS011;66121;52.584;9.694;2024-02-28T02:19:01;25.13;;;12.43;;
77146;SDS011;66121;52.584;9.694;2024-02-28T02:21:27;20.65;;;11.48;;
77146;SDS011;66121;52.584;9.694;2024-02-28T02:23:55;19.08;;;10.45;;
77146;SDS011;66121;52.584;9.694;2024-02-28T02:26:20;22.98;;;11.35;;
77146;SDS011;66121;52.584;9.694;2024-02-28T02:28:46;22.05;;;11.60;;
77146;SDS011;66121;52.584;9.694;2024-02-28T02:31:12;24.97;;;12.23;;
77146;SDS011;66121;52.584;9.694;2024-02-28T02:33:38;20.70;;;10.95;;
77146;SDS011;66121;52.584;9.694;2024-02-28T02:36:03;25.08;;;12.32;;
77146;SDS011;66121;52.584;9.694;2024-02-28T02:38:29;26.70;;;12.02;;
77146;SDS011;66121;52.584;9.694;2024-02-28T02:40:54;21.67;;;11.47;;
77146;SDS011;66121;52.584;9.694;2024-02-28T02:43:19;22.70;;;12.03;;
77146;SDS011;66121;52.584;9.694;2024-02-28T02:45:45;26.08;;;12.48;;
77146;SDS011;66121;52.584;9.694;2024-02-28T02:48:10;24.23;;;11.98;;
77146;SDS011;66121;52.584;9.694;2024-02-28T02:50:36;22.50;;;11.77;;
77146;SDS011;66121;52.584;9.694;2024-02-28T02:53:04;25.23;;;10.95;;
77146;SDS011;66121;52.584;9.694;2024-02-28T02:55:34;24.63;;;12.07;;
77146;SDS011;66121;52.584;9.694;2024-02-28T02:57:59;22.15;;;11.20;;
77146;SDS011;66121;52.584;9.694;2024-02-28T03:00:25;26.58;;;11.35;;
77146;SDS011;66121;52.584;9.694;2024-02-28T03:02:51;22.23;;;10.63;;
77146;SDS011;66121;52.584;9.694;2024-02-28T03:05:16;19.93;;;9.77;;
77146;SDS011;66121;52.584;9.694;2024-02-28T03:07:41;19.83;;;10.03;;
77146;SDS011;66121;52.584;9.694;2024-02-28T03:10:07;21.47;;;9.83;;
77146;SDS011;66121;52.584;9.694;2024-02-28T03:12:32;21.45;;;10.55;;
77146;SDS011;66121;52.584;9.694;2024-02-28T03:14:57;20.50;;;9.77;;
77146;SDS011;66121;52.584;9.694;2024-02-28T03:17:23;21.95;;;11.07;;
77146;SDS011;66121;52.584;9.694;2024-02-28T03:19:48;21.92;;;10.98;;
77146;SDS011;66121;52.584;9.694;2024-02-28T03:22:14;23.23;;;10.30;;
77146;SDS011;66121;52.584;9.694;2024-02-28T03:24:39;20.08;;;11.00;;
77146;SDS011;66121;52.584;9.694;2024-02-28T03:27:05;19.60;;;10.90;;
77146;SDS011;66121;52.584;9.694;2024-02-28T03:29:30;20.93;;;10.07;;
77146;SDS011;66121;52.584;9.694;2024-02-28T03:31:55;21.33;;;9.98;;
77146;SDS011;66121;52.584;9.694;2024-02-28T03:34:23;19.02;;;10.40;;
77146;SDS011;66121;52.584;9.694;2024-02-28T03:36:48;21.52;;;10.30;;
77146;SDS011;66121;52.584;9.694;2024-02-28T03:39:13;21.77;;;9.67;;
77146;SDS011;66121;52.584;9.694;2024-02-28T03:41:39;20.00;;;10.13;;
77146;SDS011;66121;52.584;9.694;2024-02-28T03:44:04;21.83;;;10.88;;
77146;SDS011;66121;52.584;9.694;2024-02-28T03:46:30;21.15;;;9.35;;
77146;SDS011;66121;52.584;9.694;2024-02-28T03:48:55;21.40;;;9.95;;
77146;SDS011;66121;52.584;9.694;2024-02-28T03:51:21;20.40;;;10.20;;
77146;SDS011;66121;52.584;9.694;2024-02-28T03:53:46;17.50;;;8.98;;
77146;SDS011;66121;52.584;9.694;2024-02-28T03:56:11;23.80;;;10.33;;
77146;SDS011;66121;52.584;9.694;2024-02-28T03:58:37;22.35;;;11.18;;
77146;SDS011;66121;52.584;9.694;2024-02-28T04:01:02;25.50;;;10.10;;
77146;SDS011;66121;52.584;9.694;2024-02-28T04:03:28;21.08;;;9.75;;
77146;SDS011;66121;52.584;9.694;2024-02-28T04:05:54;24.85;;;11.02;;
77146;SDS011;66121;52.584;9.694;2024-02-28T04:08:19;22.17;;;10.65;;
77146;SDS011;66121;52.584;9.694;2024-02-28T04:10:44;22.33;;;10.57;;
77146;SDS011;66121;52.584;9.694;2024-02-28T04:13:10;24.23;;;11.77;;
77146;SDS011;66121;52.584;9.694;2024-02-28T04:15:35;28.00;;;12.02;;
77146;SDS011;66121;52.584;9.694;2024-02-28T04:18:00;26.60;;;12.20;;
77146;SDS011;66121;52.584;9.694;2024-02-28T04:20:26;22.10;;;10.85;;
77146;SDS011;66121;52.584;9.694;2024-02-28T04:22:51;25.80;;;11.27;;
77146;SDS011;66121;52.584;9.694;2024-02-28T04:25:17;28.02;;;13.02;;
77146;SDS011;66121;52.584;9.694;2024-02-28T04:27:42;24.75;;;11.65;;
77146;SDS011;66121;52.584;9.694;2024-02-28T04:30:08;24.80;;;11.15;;
77146;SDS011;66121;52.584;9.694;2024-02-28T04:32:34;21.83;;;10.60;;
77146;SDS011;66121;52.584;9.694;2024-02-28T04:35:00;28.35;;;12.40;;
77146;SDS011;66121;52.584;9.694;2024-02-28T04:37:25;26.77;;;12.35;;
77146;SDS011;66121;52.584;9.694;2024-02-28T04:39:51;25.50;;;11.57;;
77146;SDS011;66121;52.584;9.694;2024-02-28T04:42:16;30.13;;;12.30;;
77146;SDS011;66121;52.584;9.694;2024-02-28T04:44:42;26.23;;;12.03;;
77146;SDS011;66121;52.584;9.694;2024-02-28T04:47:07;25.73;;;12.55;;
77146;SDS011;66121;52.584;9.694;2024-02-28T04:49:32;28.95;;;13.20;;
77146;SDS011;66121;52.584;9.694;2024-02-28T04:51:58;26.35;;;12.93;;
77146;SDS011;66121;52.584;9.694;2024-02-28T04:54:23;26.23;;;12.07;;
77146;SDS011;66121;52.584;9.694;2024-02-28T04:56:49;25.40;;;11.73;;
77146;SDS011;66121;52.584;9.694;2024-02-28T04:59:16;27.48;;;12.23;;
77146;SDS011;66121;52.584;9.694;2024-02-28T05:01:41;27.10;;;11.82;;
77146;SDS011;66121;52.584;9.694;2024-02-28T05:04:08;29.75;;;12.57;;
77146;SDS011;66121;52.584;9.694;2024-02-28T05:06:34;26.40;;;11.93;;
77146;SDS011;66121;52.584;9.694;2024-02-28T05:09:00;28.17;;;12.23;;
77146;SDS011;66121;52.584;9.694;2024-02-28T05:11:27;24.95;;;11.27;;
77146;SDS011;66121;52.584;9.694;2024-02-28T05:13:52;28.67;;;12.70;;
77146;SDS011;66121;52.584;9.694;2024-02-28T05:16:17;28.20;;;12.53;;
77146;SDS011;66121;52.584;9.694;2024-02-28T05:18:46;27.25;;;12.90;;
77146;SDS011;66121;52.584;9.694;2024-02-28T05:21:12;27.83;;;13.80;;
77146;SDS011;66121;52.584;9.694;2024-02-28T05:23:37;33.72;;;14.88;;
77146;SDS011;66121;52.584;9.694;2024-02-28T05:26:03;36.67;;;14.00;;
77146;SDS011;66121;52.584;9.694;2024-02-28T05:28:34;34.30;;;15.00;;
77146;SDS011;66121;52.584;9.694;2024-02-28T05:31:10;38.53;;;16.15;;
77146;SDS011;66121;52.584;9.694;2024-02-28T05:33:48;33.45;;;15.02;;
77146;SDS011;66121;52.584;9.694;2024-02-28T05:36:15;28.38;;;13.73;;
77146;SDS011;66121;52.584;9.694;2024-02-28T05:38:40;35.00;;;14.30;;
77146;SDS011;66121;52.584;9.694;2024-02-28T05:41:07;25.13;;;12.23;;
77146;SDS011;66121;52.584;9.694;2024-02-28T05:43:32;28.30;;;12.55;;
77146;SDS011;66121;52.584;9.694;2024-02-28T05:45:57;27.10;;;12.73;;
77146;SDS011;66121;52.584;9.694;2024-02-28T05:48:23;34.07;;;14.07;;
77146;SDS011;66121;52.584;9.694;2024-02-28T05:50:48;33.37;;;13.80;;
77146;SDS011;66121;52.584;9.694;2024-02-28T05:53:13;32.47;;;13.47;;
77146;SDS011;66121;52.584;9.694;2024-02-28T05:55:39;34.47;;;15.03;;
77146;SDS011;66121;52.584;9.694;2024-02-28T05:58:04;37.55;;;15.95;;
77146;SDS011;66121;52.584;9.694;2024-02-28T06:00:29;39.13;;;15.83;;
77146;SDS011;66121;52.584;9.694;2024-02-28T06:02:55;54.07;;;22.13;;
77146;SDS011;66121;52.584;9.694;2024-02-28T06:05:20;69.10;;;28.17;;
77146;SDS011;66121;52.584;9.694;2024-02-28T06:07:45;54.50;;;22.02;;
77146;SDS011;66121;52.584;9.694;2024-02-28T06:10:11;45.57;;;18.57;;
77146;SDS011;66121;52.584;9.694;2024-02-28T06:12:36;41.90;;;18.33;;
77146;SDS011;66121;52.584;9.694;2024-02-28T06:15:02;43.67;;;16.52;;
77146;SDS011;66121;52.584;9.694;2024-02-28T06:17:29;48.55;;;19.20;;
77146;SDS011;66121;52.584;9.694;2024-02-28T06:19:54;40.58;;;17.08;;
77146;SDS011;66121;52.584;9.694;2024-02-28T06:22:20;50.00;;;20.47;;
77146;SDS011;66121;52.584;9.694;2024-02-28T06:24:45;44.80;;;18.52;;
77146;SDS011;66121;52.584;9.694;2024-02-28T06:27:11;49.42;;;19.63;;
77146;SDS011;66121;52.584;9.694;2024-02-28T06:29:38;46.45;;;18.75;;
77146;SDS011;66121;52.584;9.694;2024-02-28T06:32:04;38.60;;;15.57;;
77146;SDS011;66121;52.584;9.694;2024-02-28T06:34:30;45.50;;;19.63;;
77146;SDS011;66121;52.584;9.694;2024-02-28T06:36:55;46.70;;;19.10;;
77146;SDS011;66121;52.584;9.694;2024-02-28T06:39:21;42.33;;;17.30;;
77146;SDS011;66121;52.584;9.694;2024-02-28T06:41:46;49.70;;;19.43;;
77146;SDS011;66121;52.584;9.694;2024-02-28T06:44:11;39.53;;;16.23;;
77146;SDS011;66121;52.584;9.694;2024-02-28T06:46:37;44.08;;;17.90;;
77146;SDS011;66121;52.584;9.694;2024-02-28T06:49:02;43.67;;;18.90;;
77146;SDS011;66121;52.584;9.694;2024-02-28T06:51:27;48.07;;;19.07;;
77146;SDS011;66121;52.584;9.694;2024-02-28T06:53:53;44.13;;;18.40;;
77146;SDS011;66121;52.584;9.694;2024-02-28T06:56:18;42.07;;;17.40;;
77146;SDS011;66121;52.584;9.694;2024-02-28T06:58:43;44.07;;;19.20;;
77146;SDS011;66121;52.584;9.694;2024-02-28T07:01:09;42.23;;;18.23;;
77146;SDS011;66121;52.584;9.694;2024-02-28T07:03:34;44.85;;;18.85;;
77146;SDS011;66121;52.584;9.694;2024-02-28T07:05:59;37.93;;;16.93;;
77146;SDS011;66121;52.584;9.694;2024-02-28T07:08:25;49.22;;;18.35;;
77146;SDS011;66121;52.584;9.694;2024-02-28T07:10:50;39.38;;;17.25;;
77146;SDS011;66121;52.584;9.694;2024-02-28T07:13:19;41.17;;;17.52;;
77146;SDS011;66121;52.584;9.694;2024-02-28T07:15:45;44.42;;;18.55;;
77146;SDS011;66121;52.584;9.694;2024-02-28T07:18:10;41.97;;;18.13;;
77146;SDS011;66121;52.584;9.694;2024-02-28T07:20:35;39.40;;;17.17;;
77146;SDS011;66121;52.584;9.694;2024-02-28T07:23:01;31.87;;;15.97;;
77146;SDS011;66121;52.584;9.694;2024-02-28T07:25:26;39.17;;;17.20;;
77146;SDS011;66121;52.584;9.694;2024-02-28T07:27:51;37.30;;;16.52;;
77146;SDS011;66121;52.584;9.694;2024-02-28T07:30:17;42.17;;;19.13;;
77146;SDS011;66121;52.584;9.694;2024-02-28T07:32:42;42.00;;;16.85;;
77146;SDS011;66121;52.584;9.694;2024-02-28T07:35:07;42.53;;;18.00;;
77146;SDS011;66121;52.584;9.694;2024-02-28T07:37:33;34.90;;;15.27;;
77146;SDS011;66121;52.584;9.694;2024-02-28T07:39:58;36.25;;;16.35;;
77146;SDS011;66121;52.584;9.694;2024-02-28T07:42:24;41.33;;;18.98;;
77146;SDS011;66121;52.584;9.694;2024-02-28T07:44:50;39.35;;;17.42;;
77146;SDS011;66121;52.584;9.694;2024-02-28T07:47:19;40.97;;;15.60;;
77146;SDS011;66121;52.584;9.694;2024-02-28T07:49:44;42.42;;;17.20;;
77146;SDS011;66121;52.584;9.694;2024-02-28T07:52:13;41.92;;;16.27;;
77146;SDS011;66121;52.584;9.694;2024-02-28T07:54:41;40.90;;;16.90;;
77146;SDS011;66121;52.584;9.694;2024-02-28T07:57:07;41.95;;;18.15;;
77146;SDS011;66121;52.584;9.694;2024-02-28T07:59:38;43.35;;;19.55;;
77146;SDS011;66121;52.584;9.694;2024-02-28T08:02:04;46.40;;;17.60;;
77146;SDS011;66121;52.584;9.694;2024-02-28T08:04:30;27.73;;;12.95;;
77146;SDS011;66121;52.584;9.694;2024-02-28T08:06:56;45.08;;;18.95;;
77146;SDS011;66121;52.584;9.694;2024-02-28T08:09:21;47.13;;;16.93;;
77146;SDS011;66121;52.584;9.694;2024-02-28T08:11:47;53.40;;;18.88;;
77146;SDS011;66121;52.584;9.694;2024-02-28T08:14:13;40.30;;;16.08;;
77146;SDS011;66121;52.584;9.694;2024-02-28T08:16:38;33.72;;;16.33;;
77146;SDS011;66121;52.584;9.694;2024-02-28T08:19:03;51.08;;;19.13;;
77146;SDS011;66121;52.584;9.694;2024-02-28T08:21:29;50.53;;;20.63;;
77146;SDS011;66121;52.584;9.694;2024-02-28T08:23:54;50.33;;;20.67;;
77146;SDS011;66121;52.584;9.694;2024-02-28T08:26:19;47.08;;;19.27;;
77146;SDS011;66121;52.584;9.694;2024-02-28T08:28:45;54.25;;;19.17;;
77146;SDS011;66121;52.584;9.694;2024-02-28T08:31:10;52.77;;;19.67;;
77146;SDS011;66121;52.584;9.694;2024-02-28T08:33:36;44.45;;;18.38;;
77146;SDS011;66121;52.584;9.694;2024-02-28T08:36:01;49.97;;;18.50;;
77146;SDS011;66121;52.584;9.694;2024-02-28T08:38:26;54.78;;;21.50;;
77146;SDS011;66121;52.584;9.694;2024-02-28T08:40:52;48.70;;;19.67;;
77146;SDS011;66121;52.584;9.694;2024-02-28T08:43:18;52.22;;;21.00;;
77146;SDS011;66121;52.584;9.694;2024-02-28T08:45:43;51.10;;;20.70;;
77146;SDS011;66121;52.584;9.694;2024-02-28T08:48:08;49.78;;;19.33;;
77146;SDS011;66121;52.584;9.694;2024-02-28T08:50:34;49.03;;;20.45;;
77146;SDS011;66121;52.584;9.694;2024-02-28T08:53:00;43.47;;;17.80;;
77146;SDS011;66121;52.584;9.694;2024-02-28T08:55:26;44.35;;;18.60;;
77146;SDS011;66121;52.584;9.694;2024-02-28T08:57:51;47.08;;;20.45;;
77146;SDS011;66121;52.584;9.694;2024-02-28T09:00:17;51.22;;;20.50;;
77146;SDS011;66121;52.584;9.694;2024-02-28T09:02:42;38.40;;;16.73;;
77146;SDS011;66121;52.584;9.694;2024-02-28T09:05:08;51.13;;;20.05;;
77146;SDS011;66121;52.584;9.694;2024-02-28T09:07:34;47.38;;;19.08;;
77146;SDS011;66121;52.584;9.694;2024-02-28T09:10:01;49.03;;;20.15;;
77146;SDS011;66121;52.584;9.694;2024-02-28T09:12:28;49.03;;;20.65;;
77146;SDS011;66121;52.584;9.694;2024-02-28T09:14:53;53.37;;;18.93;;
77146;SDS011;66121;52.584;9.694;2024-02-28T09:17:22;48.50;;;20.55;;
77146;SDS011;66121;52.584;9.694;2024-02-28T09:19:48;45.28;;;18.58;;
77146;SDS011;66121;52.584;9.694;2024-02-28T09:22:13;45.63;;;20.47;;
77146;SDS011;66121;52.584;9.694;2024-02-28T09:24:40;48.67;;;20.58;;
77146;SDS011;66121;52.584;9.694;2024-02-28T09:27:05;46.95;;;20.52;;
77146;SDS011;66121;52.584;9.694;2024-02-28T09:29:31;46.30;;;20.05;;
77146;SDS011;66121;52.584;9.694;2024-02-28T09:31:57;50.20;;;21.07;;
77146;SDS011;66121;52.584;9.694;2024-02-28T09:34:22;47.83;;;21.50;;
77146;SDS011;66121;52.584;9.694;2024-02-28T09:36:47;44.40;;;20.10;;
77146;SDS011;66121;52.584;9.694;2024-02-28T09:39:13;51.50;;;19.90;;
77146;SDS011;66121;52.584;9.694;2024-02-28T09:41:40;44.63;;;20.17;;
77146;SDS011;66121;52.584;9.694;2024-02-28T09:44:06;43.30;;;19.83;;
77146;SDS011;66121;52.584;9.694;2024-02-28T09:46:32;46.53;;;19.80;;
77146;SDS011;66121;52.584;9.694;2024-02-28T09:49:04;46.58;;;20.45;;
77146;SDS011;66121;52.584;9.694;2024-02-28T09:51:32;46.20;;;19.52;;
77146;SDS011;66121;52.584;9.694;2024-02-28T09:53:59;41.80;;;19.10;;
77146;SDS011;66121;52.584;9.694;2024-02-28T09:56:25;42.42;;;19.52;;
77146;SDS011;66121;52.584;9.694;2024-02-28T09:58:51;47.97;;;20.27;;
77146;SDS011;66121;52.584;9.694;2024-02-28T10:01:16;45.45;;;19.88;;
77146;SDS011;66121;52.584;9.694;2024-02-28T10:03:45;41.17;;;18.30;;
77146;SDS011;66121;52.584;9.694;2024-02-28T10:06:14;48.70;;;20.08;;
77146;SDS011;66121;52.584;9.694;2024-02-28T10:08:40;44.13;;;19.33;;
77146;SDS011;66121;52.584;9.694;2024-02-28T10:11:06;38.22;;;18.55;;
77146;SDS011;66121;52.584;9.694;2024-02-28T10:13:31;44.85;;;19.52;;
77146;SDS011;66121;52.584;9.694;2024-02-28T10:15:57;45.97;;;20.05;;
77146;SDS011;66121;52.584;9.694;2024-02-28T10:18:22;46.60;;;20.40;;
77146;SDS011;66121;52.584;9.694;2024-02-28T10:20:48;46.10;;;19.95;;
77146;SDS011;66121;52.584;9.694;2024-02-28T10:23:13;45.05;;;21.15;;
77146;SDS011;66121;52.584;9.694;2024-02-28T10:25:46;46.20;;;21.25;;
77146;SDS011;66121;52.584;9.694;2024-02-28T10:28:12;49.95;;;21.55;;
77146;SDS011;66121;52.584;9.694;2024-02-28T10:30:42;48.00;;;20.98;;
77146;SDS011;66121;52.584;9.694;2024-02-28T10:33:14;57.90;;;22.20;;
77146;SDS011;66121;52.584;9.694;2024-02-28T10:35:41;56.03;;;22.48;;
77146;SDS011;66121;52.584;9.694;2024-02-28T10:38:13;53.00;;;21.95;;
77146;SDS011;66121;52.584;9.694;2024-02-28T10:40:42;53.67;;;21.90;;
77146;SDS011;66121;52.584;9.694;2024-02-28T10:43:07;49.97;;;23.58;;
77146;SDS011;66121;52.584;9.694;2024-02-28T10:45:35;51.78;;;21.92;;
77146;SDS011;66121;52.584;9.694;2024-02-28T10:48:02;54.75;;;22.88;;
77146;SDS011;66121;52.584;9.694;2024-02-28T10:50:28;51.88;;;23.40;;
77146;SDS011;66121;52.584;9.694;2024-02-28T10:52:54;52.55;;;22.05;;
77146;SDS011;66121;52.584;9.694;2024-02-28T10:55:21;61.35;;;24.60;;
77146;SDS011;66121;52.584;9.694;2024-02-28T10:57:52;57.97;;;22.67;;
77146;SDS011;66121;52.584;9.694;2024-02-28T11:00:23;52.65;;;21.35;;
77146;SDS011;66121;52.584;9.694;2024-02-28T11:02:48;56.00;;;23.83;;
77146;SDS011;66121;52.584;9.694;2024-02-28T11:05:14;58.00;;;23.60;;
77146;SDS011;66121;52.584;9.694;2024-02-28T11:07:43;51.72;;;21.90;;
77146;SDS011;66121;52.584;9.694;2024-02-28T11:10:08;51.83;;;21.95;;
77146;SDS011;66121;52.584;9.694;2024-02-28T11:12:35;42.55;;;18.73;;
77146;SDS011;66121;52.584;9.694;2024-02-28T11:15:02;45.97;;;19.83;;
77146;SDS011;66121;52.584;9.694;2024-02-28T11:17:31;53.13;;;22.63;;
77146;SDS011;66121;52.584;9.694;2024-02-28T11:19:57;56.38;;;22.13;;
77146;SDS011;66121;52.584;9.694;2024-02-28T11:22:22;53.65;;;22.45;;
77146;SDS011;66121;52.584;9.694;2024-02-28T11:24:48;41.05;;;17.15;;
77146;SDS011;66121;52.584;9.694;2024-02-28T11:27:15;55.20;;;21.17;;
77146;SDS011;66121;52.584;9.694;2024-02-28T11:29:40;49.70;;;21.55;;
77146;SDS011;66121;52.584;9.694;2024-02-28T11:32:06;58.05;;;23.00;;
77146;SDS011;66121;52.584;9.694;2024-02-28T11:34:33;41.55;;;18.42;;
77146;SDS011;66121;52.584;9.694;2024-02-28T11:36:59;51.83;;;19.50;;
77146;SDS011;66121;52.584;9.694;2024-02-28T11:39:24;46.13;;;20.17;;
77146;SDS011;66121;52.584;9.694;2024-02-28T11:41:51;50.30;;;20.13;;
77146;SDS011;66121;52.584;9.694;2024-02-28T11:44:17;50.50;;;23.13;;
77146;SDS011;66121;52.584;9.694;2024-02-28T11:46:47;43.65;;;19.77;;
77146;SDS011;66121;52.584;9.694;2024-02-28T11:49:13;52.17;;;20.45;;
77146;SDS011;66121;52.584;9.694;2024-02-28T11:51:39;49.70;;;21.38;;
77146;SDS011;66121;52.584;9.694;2024-02-28T11:54:06;50.33;;;21.63;;
77146;SDS011;66121;52.584;9.694;2024-02-28T11:56:32;53.05;;;22.73;;
77146;SDS011;66121;52.584;9.694;2024-02-28T11:58:58;56.53;;;21.77;;
77146;SDS011;66121;52.584;9.694;2024-02-28T12:04:03;53.03;;;22.38;;
77146;SDS011;66121;52.584;9.694;2024-02-28T12:06:32;54.95;;;23.02;;
77146;SDS011;66121;52.584;9.694;2024-02-28T12:08:59;47.00;;;19.00;;
77146;SDS011;66121;52.584;9.694;2024-02-28T12:11:25;45.30;;;19.88;;
77146;SDS011;66121;52.584;9.694;2024-02-28T12:13:53;55.10;;;20.27;;
77146;SDS011;66121;52.584;9.694;2024-02-28T12:16:21;52.60;;;20.65;;
77146;SDS011;66121;52.584;9.694;2024-02-28T12:18:48;48.50;;;20.48;;
77146;SDS011;66121;52.584;9.694;2024-02-28T12:21:13;51.53;;;19.17;;
77146;SDS011;66121;52.584;9.694;2024-02-28T12:23:38;45.75;;;20.52;;
77146;SDS011;66121;52.584;9.694;2024-02-28T12:26:04;44.83;;;19.97;;
77146;SDS011;66121;52.584;9.694;2024-02-28T12:28:29;52.17;;;19.90;;
77146;SDS011;66121;52.584;9.694;2024-02-28T12:30:55;54.25;;;20.45;;
77146;SDS011;66121;52.584;9.694;2024-02-28T12:33:21;48.40;;;19.20;;
77146;SDS011;66121;52.584;9.694;2024-02-28T12:35:47;49.97;;;20.08;;
77146;SDS011;66121;52.584;9.694;2024-02-28T12:38:13;45.80;;;19.02;;
77146;SDS011;66121;52.584;9.694;2024-02-28T12:40:39;46.75;;;18.40;;
77146;SDS011;66121;52.584;9.694;2024-02-28T12:43:05;47.47;;;18.55;;
77146;SDS011;66121;52.584;9.694;2024-02-28T12:45:30;45.20;;;18.55;;
77146;SDS011;66121;52.584;9.694;2024-02-28T12:47:56;53.13;;;20.88;;
77146;SDS011;66121;52.584;9.694;2024-02-28T12:50:22;50.60;;;20.70;;
77146;SDS011;66121;52.584;9.694;2024-02-28T12:52:49;49.72;;;19.80;;
77146;SDS011;66121;52.584;9.694;2024-02-28T12:55:18;52.08;;;20.35;;
77146;SDS011;66121;52.584;9.694;2024-02-28T12:57:43;42.65;;;17.85;;
77146;SDS011;66121;52.584;9.694;2024-02-28T13:00:10;46.92;;;19.38;;
77146;SDS011;66121;52.584;9.694;2024-02-28T13:02:36;48.17;;;19.63;;
77146;SDS011;66121;52.584;9.694;2024-02-28T13:05:01;44.45;;;19.33;;
77146;SDS011;66121;52.584;9.694;2024-02-28T13:07:26;41.55;;;16.98;;
77146;SDS011;66121;52.584;9.694;2024-02-28T13:09:52;42.90;;;18.50;;
77146;SDS011;66121;52.584;9.694;2024-02-28T13:12:18;48.10;;;21.35;;
77146;SDS011;66121;52.584;9.694;2024-02-28T13:14:44;48.05;;;19.67;;
77146;SDS011;66121;52.584;9.694;2024-02-28T13:17:10;46.13;;;19.77;;
77146;SDS011;66121;52.584;9.694;2024-02-28T13:19:36;39.78;;;17.67;;
77146;SDS011;66121;52.584;9.694;2024-02-28T13:22:01;39.40;;;16.85;;
77146;SDS011;66121;52.584;9.694;2024-02-28T13:24:27;49.17;;;17.65;;
77146;SDS011;66121;52.584;9.694;2024-02-28T13:26:52;38.85;;;16.70;;
77146;SDS011;66121;52.584;9.694;2024-02-28T13:29:17;46.80;;;18.15;;
77146;SDS011;66121;52.584;9.694;2024-02-28T13:31:42;43.53;;;18.57;;
77146;SDS011;66121;52.584;9.694;2024-02-28T13:34:08;39.72;;;15.52;;
77146;SDS011;66121;52.584;9.694;2024-02-28T13:36:33;36.58;;;15.63;;
77146;SDS011;66121;52.584;9.694;2024-02-28T13:39:01;34.33;;;15.60;;
77146;SDS011;66121;52.584;9.694;2024-02-28T13:41:27;33.20;;;14.50;;
77146;SDS011;66121;52.584;9.694;2024-02-28T13:43:53;36.80;;;15.85;;
77146;SDS011;66121;52.584;9.694;2024-02-28T13:46:18;38.55;;;16.02;;
77146;SDS011;66121;52.584;9.694;2024-02-28T13:48:44;34.42;;;14.80;;
77146;SDS011;66121;52.584;9.694;2024-02-28T13:51:10;32.77;;;15.37;;
77146;SDS011;66121;52.584;9.694;2024-02-28T13:53:35;36.85;;;15.80;;
77146;SDS011;66121;52.584;9.694;2024-02-28T13:56:01;42.00;;;17.13;;
77146;SDS011;66121;52.584;9.694;2024-02-28T13:58:26;38.90;;;16.85;;
77146;SDS011;66121;52.584;9.694;2024-02-28T14:00:52;38.75;;;16.30;;
77146;SDS011;66121;52.584;9.694;2024-02-28T14:03:17;38.85;;;17.30;;
77146;SDS011;66121;52.584;9.694;2024-02-28T14:05:42;37.45;;;16.02;;
77146;SDS011;66121;52.584;9.694;2024-02-28T14:08:08;38.75;;;15.85;;
77146;SDS011;66121;52.584;9.694;2024-02-28T14:10:34;41.17;;;16.60;;
77146;SDS011;66121;52.584;9.694;2024-02-28T14:13:00;41.90;;;19.42;;
77146;SDS011;66121;52.584;9.694;2024-02-28T14:15:25;41.90;;;17.40;;
77146;SDS011;66121;52.584;9.694;2024-02-28T14:17:51;46.65;;;17.88;;